PWSweather.com
Personal Weather Stations
Station Observations
PLIWOJE121
HaczowPL 36-213

HaczowPL 36-213

Lat: 49.66759829999999, Lon: 21.890613799999983

Elevation: 9

Station Type: WH1080

Latest ConditionsUpdated 10:05:00 AM GMT+01:01 Friday, Feb 22, 2019
Currently Today's Max Today's Min Today's Average
Temperature 28.6°F-1.9°C 40.5°F4.7°C 27.7°F-2.4°C 35.8°F2.1°C
Dew Point 18.7°F-7.4°C 32.1°F0.1°C 17.6°F-8.0°C 27.3°F-2.6°C
Winds 7.6 mph NE12.2 kmh NE 12.7 mph -20.4 kmh - - 8.4 mph 13.5 kmh
Wind Gusts 12.1 mph19.5 kmh 20.6 mph33.2 kmh - -
Humidity 66% 73% 65% 71%
Pressure 29.96 in1014.6 mb 29.96 in1014.6 mb 29.67 in1004.7 mb -
Precipitation - 0.12 in3.0 mm - -
Hour Temp Dew Point Humidity Winds Wind Gusts Pressure Precip Precip Rate Daily Precip Total
10:05 AM 28.6°F-1.9°C 18.7°F-7.4°C 66% 7.6 mph NE12.2 kmh NE 12.1 mph19.5 kmh 29.96 in1014.6 mb 0.00 in0.0 mm 0.00 in0.0 mm 0.12 in3.0 mm
10:00 AM 28.6°F-1.9°C 19.4°F-7.0°C 68% 6.9 mph NNW11.1 kmh NNW 11.4 mph18.3 kmh 29.95 in1014.2 mb 0.00 in0.0 mm 0.00 in0.0 mm 0.12 in3.0 mm
09:55 AM 28.2°F-2.1°C 18.0°F-7.8°C 65% 5.5 mph NW8.9 kmh NW 8.3 mph13.4 kmh 29.94 in1013.9 mb 0.00 in0.0 mm 0.00 in0.0 mm 0.12 in3.0 mm
09:50 AM 27.9°F-2.3°C 17.6°F-8.0°C 65% 5.6 mph NNW9.0 kmh NNW 8.3 mph13.4 kmh 29.94 in1013.9 mb 0.00 in0.0 mm 0.00 in0.0 mm 0.12 in3.0 mm
09:45 AM 27.7°F-2.4°C 17.8°F-7.9°C 66% 5.2 mph NNW8.4 kmh NNW 8.3 mph13.4 kmh 29.93 in1013.5 mb 0.00 in0.0 mm 0.00 in0.0 mm 0.12 in3.0 mm
09:40 AM 27.9°F-2.3°C 18.0°F-7.8°C 66% 3.6 mph NNW5.8 kmh NNW 6.0 mph9.7 kmh 29.93 in1013.5 mb 0.00 in0.0 mm 0.00 in0.0 mm 0.12 in3.0 mm
09:35 AM 27.9°F-2.3°C 18.0°F-7.8°C 66% 3.1 mph NW5.0 kmh NW 5.4 mph8.7 kmh 29.93 in1013.5 mb 0.00 in0.0 mm 0.00 in0.0 mm 0.12 in3.0 mm
09:30 AM 28.0°F-2.2°C 18.1°F-7.7°C 66% 5.0 mph N8.0 kmh N 9.8 mph15.8 kmh 29.92 in1013.2 mb 0.00 in0.0 mm 0.00 in0.0 mm 0.12 in3.0 mm
09:25 AM 27.9°F-2.3°C 18.0°F-7.8°C 66% 5.5 mph NE8.9 kmh NE 9.8 mph15.8 kmh 29.93 in1013.5 mb 0.00 in0.0 mm 0.00 in0.0 mm 0.12 in3.0 mm
09:20 AM 28.0°F-2.2°C 18.1°F-7.7°C 66% 5.7 mph N9.2 kmh N 9.2 mph14.8 kmh 29.92 in1013.2 mb 0.00 in0.0 mm 0.00 in0.0 mm 0.12 in3.0 mm
09:15 AM 27.9°F-2.3°C 18.3°F-7.6°C 67% 7.7 mph N12.4 kmh N 10.7 mph17.2 kmh 29.91 in1012.9 mb 0.00 in0.0 mm 0.00 in0.0 mm 0.12 in3.0 mm
09:10 AM 27.9°F-2.3°C 18.3°F-7.6°C 67% 6.5 mph NNW10.5 kmh NNW 10.7 mph17.2 kmh 29.91 in1012.9 mb 0.00 in0.0 mm 0.00 in0.0 mm 0.12 in3.0 mm
09:05 AM 27.9°F-2.3°C 18.3°F-7.6°C 67% 5.5 mph N8.9 kmh N 10.7 mph17.2 kmh 29.91 in1012.9 mb 0.00 in0.0 mm 0.00 in0.0 mm 0.12 in3.0 mm
09:00 AM 27.9°F-2.3°C 18.7°F-7.4°C 68% 6.1 mph N9.8 kmh N 10.7 mph17.2 kmh 29.91 in1012.9 mb 0.00 in0.0 mm 0.00 in0.0 mm 0.12 in3.0 mm
08:55 AM 27.9°F-2.3°C 18.7°F-7.4°C 68% 6.7 mph NNE10.8 kmh NNE 11.4 mph18.3 kmh 29.91 in1012.9 mb 0.00 in0.0 mm 0.00 in0.0 mm 0.12 in3.0 mm
08:50 AM 27.9°F-2.3°C 18.7°F-7.4°C 68% 7.5 mph NE12.1 kmh NE 11.4 mph18.3 kmh 29.89 in1012.2 mb 0.00 in0.0 mm 0.00 in0.0 mm 0.12 in3.0 mm
08:45 AM 27.9°F-2.3°C 18.7°F-7.4°C 68% 6.5 mph NW10.5 kmh NW 10.7 mph17.2 kmh 29.89 in1012.2 mb 0.00 in0.0 mm 0.00 in0.0 mm 0.12 in3.0 mm
08:40 AM 28.2°F-2.1°C 19.0°F-7.2°C 68% 5.2 mph NW8.4 kmh NW 8.3 mph13.4 kmh 29.88 in1011.9 mb 0.00 in0.0 mm 0.00 in0.0 mm 0.12 in3.0 mm
08:35 AM 28.2°F-2.1°C 19.0°F-7.2°C 68% 5.7 mph N9.2 kmh N 9.8 mph15.8 kmh 29.88 in1011.9 mb 0.00 in0.0 mm 0.00 in0.0 mm 0.12 in3.0 mm
08:30 AM 28.2°F-2.1°C 19.0°F-7.2°C 68% 7.0 mph N11.3 kmh N 9.8 mph15.8 kmh 29.87 in1011.5 mb 0.00 in0.0 mm 0.00 in0.0 mm 0.12 in3.0 mm
08:25 AM 28.2°F-2.1°C 19.0°F-7.2°C 68% 7.4 mph NW11.9 kmh NW 11.4 mph18.3 kmh 29.87 in1011.5 mb 0.00 in0.0 mm 0.00 in0.0 mm 0.12 in3.0 mm
08:20 AM 28.0°F-2.2°C 18.8°F-7.3°C 68% 7.9 mph NW12.7 kmh NW 11.4 mph18.3 kmh 29.87 in1011.5 mb 0.00 in0.0 mm 0.00 in0.0 mm 0.12 in3.0 mm
08:15 AM 28.0°F-2.2°C 18.8°F-7.3°C 68% 8.0 mph N12.9 kmh N 11.4 mph18.3 kmh 29.86 in1011.2 mb 0.00 in0.0 mm 0.00 in0.0 mm 0.12 in3.0 mm
08:10 AM 28.2°F-2.1°C 19.0°F-7.2°C 68% 7.5 mph N12.1 kmh N 9.8 mph15.8 kmh 29.86 in1011.2 mb 0.00 in0.0 mm 0.00 in0.0 mm 0.12 in3.0 mm
08:05 AM 28.4°F-2.0°C 20.5°F-6.4°C 72% 7.1 mph NW11.4 kmh NW 9.8 mph15.8 kmh 29.84 in1010.5 mb 0.00 in0.0 mm 0.00 in0.0 mm 0.12 in3.0 mm
08:00 AM 28.4°F-2.0°C 20.5°F-6.4°C 72% 7.0 mph NW11.3 kmh NW 11.4 mph18.3 kmh 29.84 in1010.5 mb 0.00 in0.0 mm 0.00 in0.0 mm 0.12 in3.0 mm
07:55 AM 28.4°F-2.0°C 20.5°F-6.4°C 72% 8.1 mph NNE13.0 kmh NNE 12.1 mph19.5 kmh 29.84 in1010.5 mb 0.00 in0.0 mm 0.00 in0.0 mm 0.12 in3.0 mm
07:50 AM 28.6°F-1.9°C 20.7°F-6.3°C 72% 8.2 mph NNE13.2 kmh NNE 12.1 mph19.5 kmh 29.82 in1009.8 mb 0.00 in0.0 mm 0.00 in0.0 mm 0.12 in3.0 mm
07:45 AM 28.6°F-1.9°C 20.7°F-6.3°C 72% 7.5 mph WNW12.1 kmh WNW 12.1 mph19.5 kmh 29.82 in1009.8 mb 0.00 in0.0 mm 0.00 in0.0 mm 0.12 in3.0 mm
07:40 AM 28.6°F-1.9°C 20.7°F-6.3°C 72% 7.8 mph NNW12.6 kmh NNW 13.0 mph20.9 kmh 29.81 in1009.5 mb 0.00 in0.0 mm 0.00 in0.0 mm 0.12 in3.0 mm
07:35 AM 28.8°F-1.8°C 20.9°F-6.2°C 72% 9.4 mph N15.1 kmh N 13.0 mph20.9 kmh 29.80 in1009.1 mb 0.00 in0.0 mm 0.00 in0.0 mm 0.12 in3.0 mm
07:30 AM 28.9°F-1.7°C 21.0°F-6.1°C 72% 9.4 mph N15.1 kmh N 13.0 mph20.9 kmh 29.79 in1008.8 mb 0.01 in0.3 mm 0.00 in0.0 mm 0.12 in3.0 mm
07:25 AM 29.3°F-1.5°C 21.4°F-5.9°C 72% 11.0 mph N17.7 kmh N 19.0 mph30.6 kmh 29.80 in1009.1 mb 0.01 in0.3 mm 0.00 in0.0 mm 0.12 in3.0 mm
07:20 AM 29.8°F-1.2°C 21.9°F-5.6°C 72% 10.5 mph NW16.9 kmh NW 19.0 mph30.6 kmh 29.79 in1008.8 mb 0.01 in0.3 mm 0.00 in0.0 mm 0.12 in3.0 mm
07:15 AM 30.6°F-0.8°C 22.3°F-5.4°C 71% 9.1 mph NW14.6 kmh NW 20.6 mph33.2 kmh 29.78 in1008.5 mb 0.01 in0.3 mm 0.00 in0.0 mm 0.12 in3.0 mm
07:10 AM 30.9°F-0.6°C 22.6°F-5.2°C 71% 9.8 mph N15.8 kmh N 20.6 mph33.2 kmh 29.77 in1008.1 mb 0.01 in0.3 mm 0.00 in0.0 mm 0.12 in3.0 mm
07:05 AM 31.3°F-0.4°C 23.0°F-5.0°C 71% 8.5 mph NNE13.7 kmh NNE 11.4 mph18.3 kmh 29.77 in1008.1 mb 0.01 in0.3 mm 0.00 in0.0 mm 0.12 in3.0 mm
07:00 AM 31.5°F-0.3°C 23.1°F-4.9°C 71% 7.7 mph N12.4 kmh N 13.0 mph20.9 kmh 29.76 in1007.8 mb 0.01 in0.3 mm 0.00 in0.0 mm 0.12 in3.0 mm
06:55 AM 31.6°F-0.2°C 23.3°F-4.8°C 71% 7.1 mph NW11.4 kmh NW 13.0 mph20.9 kmh 29.75 in1007.5 mb 0.01 in0.3 mm 0.00 in0.0 mm 0.12 in3.0 mm
06:50 AM 32.0°F0.0°C 23.7°F-4.6°C 71% 8.1 mph NW13.0 kmh NW 12.1 mph19.5 kmh 29.75 in1007.5 mb 0.01 in0.3 mm 0.00 in0.0 mm 0.12 in3.0 mm
06:45 AM 32.0°F0.0°C 23.7°F-4.6°C 71% 10.2 mph N16.4 kmh N 16.8 mph27.0 kmh 29.74 in1007.1 mb 0.01 in0.3 mm 0.00 in0.0 mm 0.12 in3.0 mm
06:40 AM 32.5°F0.3°C 24.2°F-4.3°C 71% 10.2 mph NNE16.4 kmh NNE 16.8 mph27.0 kmh 29.73 in1006.8 mb 0.01 in0.3 mm 0.00 in0.0 mm 0.12 in3.0 mm
06:35 AM 33.1°F0.6°C 24.7°F-4.1°C 71% 7.9 mph NW12.7 kmh NW 15.2 mph24.5 kmh 29.73 in1006.8 mb 0.02 in0.5 mm 0.12 in3.0 mm 0.12 in3.0 mm
06:30 AM 33.4°F0.8°C 25.0°F-3.9°C 71% 7.1 mph NW11.4 kmh NW 15.9 mph25.6 kmh 29.72 in1006.4 mb 0.01 in0.3 mm 0.00 in0.0 mm 0.11 in2.8 mm
06:25 AM 34.0°F1.1°C 25.2°F-3.8°C 70% 7.3 mph NW11.7 kmh NW 15.9 mph25.6 kmh 29.70 in1005.8 mb 0.01 in0.3 mm 0.00 in0.0 mm 0.11 in2.8 mm
06:20 AM 35.1°F1.7°C 26.3°F-3.2°C 70% 8.0 mph NNW12.9 kmh NNW 11.4 mph18.3 kmh 29.71 in1006.1 mb 0.01 in0.3 mm 0.00 in0.0 mm 0.11 in2.8 mm
06:15 AM 36.0°F2.2°C 26.8°F-2.9°C 69% 8.9 mph NNW14.3 kmh NNW 13.0 mph20.9 kmh 29.70 in1005.8 mb 0.01 in0.3 mm 0.00 in0.0 mm 0.11 in2.8 mm
06:10 AM 37.4°F3.0°C 29.5°F-1.4°C 73% 11.4 mph NW18.3 kmh NW 20.6 mph33.2 kmh 29.69 in1005.4 mb 0.02 in0.5 mm 0.00 in0.0 mm 0.11 in2.8 mm
06:05 AM 39.7°F4.3°C 31.4°F-0.3°C 72% 11.9 mph NW19.2 kmh NW 20.6 mph33.2 kmh 29.69 in1005.4 mb 0.02 in0.5 mm 0.00 in0.0 mm 0.11 in2.8 mm
06:00 AM 40.5°F4.7°C 32.1°F0.1°C 72% 8.6 mph NW13.8 kmh NW 13.0 mph20.9 kmh 29.68 in1005.1 mb 0.02 in0.5 mm 0.00 in0.0 mm 0.11 in2.8 mm
05:55 AM 40.5°F4.7°C 32.1°F0.1°C 72% 8.3 mph NW13.4 kmh NW 11.4 mph18.3 kmh 29.67 in1004.7 mb 0.02 in0.5 mm 0.00 in0.0 mm 0.11 in2.8 mm
05:50 AM 40.5°F4.7°C 32.1°F0.1°C 72% 9.9 mph NW15.9 kmh NW 12.1 mph19.5 kmh 29.68 in1005.1 mb 0.02 in0.5 mm 0.00 in0.0 mm 0.11 in2.8 mm
05:45 AM 40.5°F4.7°C 32.1°F0.1°C 72% 11.4 mph NW18.3 kmh NW 15.2 mph24.5 kmh 29.67 in1004.7 mb 0.02 in0.5 mm 0.00 in0.0 mm 0.11 in2.8 mm
05:40 AM 40.5°F4.7°C 32.1°F0.1°C 72% 11.8 mph NW19.0 kmh NW 15.2 mph24.5 kmh 29.67 in1004.7 mb 0.04 in1.0 mm 0.24 in6.1 mm 0.11 in2.8 mm
05:35 AM 40.5°F4.7°C 32.1°F0.1°C 72% 10.7 mph NW17.2 kmh NW 13.0 mph20.9 kmh 29.67 in1004.7 mb 0.02 in0.5 mm 0.00 in0.0 mm 0.09 in2.3 mm
05:30 AM 40.5°F4.7°C 32.1°F0.1°C 72% 10.0 mph WNW16.1 kmh WNW 12.1 mph19.5 kmh 29.67 in1004.7 mb 0.02 in0.5 mm 0.00 in0.0 mm 0.09 in2.3 mm
05:25 AM 40.5°F4.7°C 32.1°F0.1°C 72% 9.4 mph WNW15.1 kmh WNW 12.1 mph19.5 kmh 29.67 in1004.7 mb 0.02 in0.5 mm 0.00 in0.0 mm 0.09 in2.3 mm
05:20 AM 40.5°F4.7°C 32.1°F0.1°C 72% 8.6 mph WNW13.8 kmh WNW 11.4 mph18.3 kmh 29.67 in1004.7 mb 0.02 in0.5 mm 0.00 in0.0 mm 0.09 in2.3 mm
05:15 AM 40.5°F4.7°C 32.1°F0.1°C 72% 8.9 mph WNW14.3 kmh WNW 11.4 mph18.3 kmh 29.67 in1004.7 mb 0.02 in0.5 mm 0.12 in3.0 mm 0.09 in2.3 mm
05:10 AM 40.5°F4.7°C 32.1°F0.1°C 72% 9.5 mph WNW15.3 kmh WNW 11.4 mph18.3 kmh 29.68 in1005.1 mb 0.01 in0.3 mm 0.00 in0.0 mm 0.08 in2.0 mm
05:05 AM 40.5°F4.7°C 32.1°F0.1°C 72% 8.6 mph WNW13.8 kmh WNW 11.4 mph18.3 kmh 29.67 in1004.7 mb 0.02 in0.5 mm 0.00 in0.0 mm 0.08 in2.0 mm
05:00 AM 40.5°F4.7°C 32.1°F0.1°C 72% 8.8 mph WNW14.2 kmh WNW 11.4 mph18.3 kmh 29.67 in1004.7 mb 0.02 in0.5 mm 0.00 in0.0 mm 0.08 in2.0 mm
04:55 AM 40.5°F4.7°C 32.1°F0.1°C 72% 9.5 mph WNW15.3 kmh WNW 11.4 mph18.3 kmh 29.67 in1004.7 mb 0.02 in0.5 mm 0.00 in0.0 mm 0.08 in2.0 mm
04:50 AM 40.5°F4.7°C 32.1°F0.1°C 72% 9.4 mph WNW15.1 kmh WNW 10.7 mph17.2 kmh 29.67 in1004.7 mb 0.02 in0.5 mm 0.00 in0.0 mm 0.08 in2.0 mm
04:45 AM 40.5°F4.7°C 32.1°F0.1°C 72% 9.8 mph WNW15.8 kmh WNW 11.4 mph18.3 kmh 29.67 in1004.7 mb 0.02 in0.5 mm 0.12 in3.0 mm 0.08 in2.0 mm
04:40 AM 40.5°F4.7°C 32.1°F0.1°C 72% 9.3 mph W15.0 kmh W 11.4 mph18.3 kmh 29.67 in1004.7 mb 0.01 in0.3 mm 0.00 in0.0 mm 0.07 in1.8 mm
04:35 AM 40.3°F4.6°C 32.0°F0.0°C 72% 9.5 mph WNW15.3 kmh WNW 11.4 mph18.3 kmh 29.67 in1004.7 mb 0.01 in0.3 mm 0.00 in0.0 mm 0.07 in1.8 mm
04:30 AM 40.3°F4.6°C 32.0°F0.0°C 72% 11.3 mph WNW18.2 kmh WNW 14.5 mph23.3 kmh 29.67 in1004.7 mb 0.01 in0.3 mm 0.00 in0.0 mm 0.07 in1.8 mm
04:25 AM 40.3°F4.6°C 32.0°F0.0°C 72% 12.4 mph WNW20.0 kmh WNW 14.5 mph23.3 kmh 29.68 in1005.1 mb 0.01 in0.3 mm 0.00 in0.0 mm 0.07 in1.8 mm
04:20 AM 40.3°F4.6°C 32.0°F0.0°C 72% 11.3 mph WNW18.2 kmh WNW 14.5 mph23.3 kmh 29.68 in1005.1 mb 0.01 in0.3 mm 0.00 in0.0 mm 0.07 in1.8 mm
04:15 AM 40.3°F4.6°C 32.0°F0.0°C 72% 10.4 mph WNW16.7 kmh WNW 11.4 mph18.3 kmh 29.68 in1005.1 mb 0.01 in0.3 mm 0.12 in3.0 mm 0.07 in1.8 mm
04:10 AM 40.3°F4.6°C 32.0°F0.0°C 72% 10.8 mph WNW17.4 kmh WNW 13.6 mph21.9 kmh 29.68 in1005.1 mb 0.00 in0.0 mm 0.00 in0.0 mm 0.06 in1.5 mm
04:05 AM 40.3°F4.6°C 32.0°F0.0°C 72% 10.5 mph WNW16.9 kmh WNW 13.6 mph21.9 kmh 29.68 in1005.1 mb 0.00 in0.0 mm 0.00 in0.0 mm 0.06 in1.5 mm
04:00 AM 40.3°F4.6°C 32.0°F0.0°C 72% 9.6 mph WNW15.4 kmh WNW 10.7 mph17.2 kmh 29.68 in1005.1 mb 0.01 in0.3 mm 0.00 in0.0 mm 0.06 in1.5 mm
03:55 AM 40.3°F4.6°C 32.0°F0.0°C 72% 8.8 mph W14.2 kmh W 10.7 mph17.2 kmh 29.67 in1004.7 mb 0.01 in0.3 mm 0.00 in0.0 mm 0.06 in1.5 mm
03:50 AM 40.3°F4.6°C 32.0°F0.0°C 72% 8.7 mph W14.0 kmh W 11.4 mph18.3 kmh 29.68 in1005.1 mb 0.01 in0.3 mm 0.00 in0.0 mm 0.06 in1.5 mm
03:45 AM 40.1°F4.5°C 31.8°F-0.1°C 72% 9.6 mph W15.4 kmh W 13.6 mph21.9 kmh 29.68 in1005.1 mb 0.01 in0.3 mm 0.00 in0.0 mm 0.06 in1.5 mm
03:40 AM 40.1°F4.5°C 31.8°F-0.1°C 72% 8.8 mph WNW14.2 kmh WNW 13.6 mph21.9 kmh 29.68 in1005.1 mb 0.01 in0.3 mm 0.00 in0.0 mm 0.06 in1.5 mm
03:35 AM 40.1°F4.5°C 31.8°F-0.1°C 72% 6.6 mph NW10.6 kmh NW 9.2 mph14.8 kmh 29.68 in1005.1 mb 0.01 in0.3 mm 0.00 in0.0 mm 0.06 in1.5 mm
03:30 AM 39.9°F4.4°C 31.6°F-0.2°C 72% 5.7 mph WNW9.2 kmh WNW 7.6 mph12.2 kmh 29.68 in1005.1 mb 0.01 in0.3 mm 0.00 in0.0 mm 0.06 in1.5 mm
03:25 AM 39.9°F4.4°C 31.6°F-0.2°C 72% 5.6 mph W9.0 kmh W 6.9 mph11.1 kmh 29.67 in1004.7 mb 0.01 in0.3 mm 0.00 in0.0 mm 0.06 in1.5 mm
03:20 AM 39.9°F4.4°C 31.6°F-0.2°C 72% 5.6 mph W9.0 kmh W 8.3 mph13.4 kmh 29.68 in1005.1 mb 0.02 in0.5 mm 0.00 in0.0 mm 0.06 in1.5 mm
03:15 AM 39.9°F4.4°C 31.6°F-0.2°C 72% 5.7 mph W9.2 kmh W 8.3 mph13.4 kmh 29.68 in1005.1 mb 0.02 in0.5 mm 0.00 in0.0 mm 0.06 in1.5 mm
03:10 AM 39.9°F4.4°C 31.6°F-0.2°C 72% 6.3 mph W10.1 kmh W 7.6 mph12.2 kmh 29.68 in1005.1 mb 0.02 in0.5 mm 0.00 in0.0 mm 0.06 in1.5 mm
03:05 AM 39.9°F4.4°C 31.6°F-0.2°C 72% 7.5 mph WNW12.1 kmh WNW 8.3 mph13.4 kmh 29.68 in1005.1 mb 0.02 in0.5 mm 0.12 in3.0 mm 0.06 in1.5 mm
03:00 AM 39.9°F4.4°C 31.6°F-0.2°C 72% 7.8 mph WNW12.6 kmh WNW 8.3 mph13.4 kmh 29.69 in1005.4 mb 0.01 in0.3 mm 0.00 in0.0 mm 0.05 in1.3 mm
02:55 AM 39.9°F4.4°C 31.6°F-0.2°C 72% 7.6 mph WNW12.2 kmh WNW 8.3 mph13.4 kmh 29.69 in1005.4 mb 0.01 in0.3 mm 0.00 in0.0 mm 0.05 in1.3 mm
02:50 AM 39.7°F4.3°C 31.4°F-0.3°C 72% 7.6 mph WNW12.2 kmh WNW 9.8 mph15.8 kmh 29.69 in1005.4 mb 0.01 in0.3 mm 0.00 in0.0 mm 0.05 in1.3 mm
02:45 AM 39.7°F4.3°C 31.4°F-0.3°C 72% 8.0 mph WNW12.9 kmh WNW 10.7 mph17.2 kmh 29.69 in1005.4 mb 0.01 in0.3 mm 0.00 in0.0 mm 0.05 in1.3 mm
02:40 AM 39.7°F4.3°C 31.4°F-0.3°C 72% 9.3 mph WNW15.0 kmh WNW 11.4 mph18.3 kmh 29.69 in1005.4 mb 0.01 in0.3 mm 0.00 in0.0 mm 0.05 in1.3 mm
02:35 AM 39.7°F4.3°C 31.4°F-0.3°C 72% 9.8 mph NW15.8 kmh NW 11.4 mph18.3 kmh 29.69 in1005.4 mb 0.01 in0.3 mm 0.00 in0.0 mm 0.05 in1.3 mm
02:30 AM 39.7°F4.3°C 31.4°F-0.3°C 72% 9.2 mph NW14.8 kmh NW 10.7 mph17.2 kmh 29.69 in1005.4 mb 0.02 in0.5 mm 0.00 in0.0 mm 0.05 in1.3 mm
02:25 AM 39.6°F4.2°C 31.3°F-0.4°C 72% 9.0 mph NW14.5 kmh NW 10.7 mph17.2 kmh 29.69 in1005.4 mb 0.02 in0.5 mm 0.12 in3.0 mm 0.05 in1.3 mm
02:20 AM 39.6°F4.2°C 31.3°F-0.4°C 72% 8.7 mph WNW14.0 kmh WNW 9.8 mph15.8 kmh 29.69 in1005.4 mb 0.01 in0.3 mm 0.00 in0.0 mm 0.04 in1.0 mm
02:15 AM 39.6°F4.2°C 31.3°F-0.4°C 72% 8.1 mph WNW13.0 kmh WNW 9.2 mph14.8 kmh 29.70 in1005.8 mb 0.01 in0.3 mm 0.00 in0.0 mm 0.04 in1.0 mm
02:10 AM 39.6°F4.2°C 31.3°F-0.4°C 72% 8.5 mph WNW13.7 kmh WNW 10.7 mph17.2 kmh 29.70 in1005.8 mb 0.01 in0.3 mm 0.00 in0.0 mm 0.04 in1.0 mm
02:05 AM 39.6°F4.2°C 31.3°F-0.4°C 72% 8.9 mph WNW14.3 kmh WNW 10.7 mph17.2 kmh 29.70 in1005.8 mb 0.01 in0.3 mm 0.00 in0.0 mm 0.04 in1.0 mm
02:00 AM 39.4°F4.1°C 31.1°F-0.5°C 72% 8.5 mph WNW13.7 kmh WNW 10.7 mph17.2 kmh 29.71 in1006.1 mb 0.01 in0.3 mm 0.00 in0.0 mm 0.04 in1.0 mm
01:55 AM 39.4°F4.1°C 31.1°F-0.5°C 72% 8.2 mph W13.2 kmh W 10.7 mph17.2 kmh 29.70 in1005.8 mb 0.01 in0.3 mm 0.00 in0.0 mm 0.04 in1.0 mm
01:50 AM 39.4°F4.1°C 31.1°F-0.5°C 72% 7.7 mph W12.4 kmh W 10.7 mph17.2 kmh 29.71 in1006.1 mb 0.02 in0.5 mm 0.00 in0.0 mm 0.04 in1.0 mm
01:45 AM 39.2°F4.0°C 30.9°F-0.6°C 72% 7.3 mph W11.7 kmh W 8.3 mph13.4 kmh 29.70 in1005.8 mb 0.02 in0.5 mm 0.00 in0.0 mm 0.04 in1.0 mm
01:40 AM 39.2°F4.0°C 30.9°F-0.6°C 72% 7.0 mph W11.3 kmh W 8.3 mph13.4 kmh 29.71 in1006.1 mb 0.02 in0.5 mm 0.00 in0.0 mm 0.04 in1.0 mm
01:35 AM 39.2°F4.0°C 30.9°F-0.6°C 72% 6.2 mph W10.0 kmh W 7.6 mph12.2 kmh 29.71 in1006.1 mb 0.02 in0.5 mm 0.12 in3.0 mm 0.04 in1.0 mm
01:30 AM 39.2°F4.0°C 30.9°F-0.6°C 72% 6.1 mph W9.8 kmh W 8.3 mph13.4 kmh 29.71 in1006.1 mb 0.01 in0.3 mm 0.00 in0.0 mm 0.02 in0.5 mm
01:25 AM 39.0°F3.9°C 31.1°F-0.5°C 73% 6.1 mph W9.8 kmh W 8.3 mph13.4 kmh 29.72 in1006.4 mb 0.01 in0.3 mm 0.00 in0.0 mm 0.02 in0.5 mm
01:20 AM 39.0°F3.9°C 31.1°F-0.5°C 73% 5.6 mph W9.0 kmh W 6.9 mph11.1 kmh 29.71 in1006.1 mb 0.02 in0.5 mm 0.00 in0.0 mm 0.02 in0.5 mm
01:15 AM 39.0°F3.9°C 31.1°F-0.5°C 73% 6.0 mph W9.7 kmh W 7.6 mph12.2 kmh 29.72 in1006.4 mb 0.02 in0.5 mm 0.00 in0.0 mm 0.02 in0.5 mm
01:10 AM 39.0°F3.9°C 31.1°F-0.5°C 73% 6.5 mph W10.5 kmh W 7.6 mph12.2 kmh 29.73 in1006.8 mb 0.02 in0.5 mm 0.00 in0.0 mm 0.02 in0.5 mm
01:05 AM 39.0°F3.9°C 31.1°F-0.5°C 73% 6.9 mph WNW11.1 kmh WNW 8.3 mph13.4 kmh 29.72 in1006.4 mb 0.02 in0.5 mm 0.00 in0.0 mm 0.02 in0.5 mm
01:00 AM 39.0°F3.9°C 31.1°F-0.5°C 73% 7.4 mph W11.9 kmh W 9.8 mph15.8 kmh 29.72 in1006.4 mb 0.02 in0.5 mm 0.00 in0.0 mm 0.02 in0.5 mm
12:55 AM 39.0°F3.9°C 31.1°F-0.5°C 73% 8.7 mph WNW14.0 kmh WNW 9.8 mph15.8 kmh 29.72 in1006.4 mb 0.02 in0.5 mm 0.12 in3.0 mm 0.02 in0.5 mm
12:50 AM 39.0°F3.9°C 31.1°F-0.5°C 73% 9.4 mph WNW15.1 kmh WNW 12.1 mph19.5 kmh 29.73 in1006.8 mb 0.01 in0.3 mm 0.00 in0.0 mm 0.01 in0.3 mm
12:45 AM 39.0°F3.9°C 31.1°F-0.5°C 73% 9.6 mph WNW15.4 kmh WNW 12.1 mph19.5 kmh 29.73 in1006.8 mb 0.02 in0.5 mm 0.00 in0.0 mm 0.01 in0.3 mm
12:40 AM 39.0°F3.9°C 31.1°F-0.5°C 73% 10.4 mph WNW16.7 kmh WNW 13.0 mph20.9 kmh 29.73 in1006.8 mb 0.02 in0.5 mm 0.00 in0.0 mm 0.01 in0.3 mm
12:35 AM 39.0°F3.9°C 31.1°F-0.5°C 73% 10.9 mph WNW17.5 kmh WNW 13.6 mph21.9 kmh 29.73 in1006.8 mb 0.02 in0.5 mm 0.00 in0.0 mm 0.01 in0.3 mm
12:30 AM 39.0°F3.9°C 31.1°F-0.5°C 73% 11.3 mph W18.2 kmh W 14.5 mph23.3 kmh 29.73 in1006.8 mb 0.02 in0.5 mm 0.00 in0.0 mm 0.01 in0.3 mm
12:25 AM 39.0°F3.9°C 31.1°F-0.5°C 73% 12.3 mph WNW19.8 kmh WNW 17.4 mph28.0 kmh 29.73 in1006.8 mb 0.04 in1.0 mm 0.24 in6.1 mm 0.01 in0.3 mm
12:20 AM 39.0°F3.9°C 31.1°F-0.5°C 73% 12.7 mph WNW20.4 kmh WNW 17.4 mph28.0 kmh 29.74 in1007.1 mb 0.02 in0.5 mm 0.00 in0.0 mm 0.02 in0.5 mm
12:15 AM 38.8°F3.8°C 30.9°F-0.6°C 73% 11.8 mph W19.0 kmh W 17.4 mph28.0 kmh 29.73 in1006.8 mb 0.02 in0.5 mm 0.00 in0.0 mm 0.02 in0.5 mm
12:10 AM 38.8°F3.8°C 30.9°F-0.6°C 73% 11.6 mph W18.7 kmh W 13.6 mph21.9 kmh 29.74 in1007.1 mb 0.02 in0.5 mm 0.00 in0.0 mm 0.02 in0.5 mm
12:05 AM 38.8°F3.8°C 30.9°F-0.6°C 73% 11.6 mph W18.7 kmh W 13.6 mph21.9 kmh 29.74 in1007.1 mb 0.02 in0.5 mm 0.00 in0.0 mm 0.02 in0.5 mm
12:00 AM 38.8°F3.8°C 30.9°F-0.6°C 73% 11.8 mph WNW19.0 kmh WNW 13.6 mph21.9 kmh 29.74 in1007.1 mb 0.02 in0.5 mm 0.00 in0.0 mm 0.02 in0.5 mm